Time;durP1;ratioP1;P1;durP2;ratioP2;P2;SDS_P1;SDS_P2;PMS_P1;PMS_P2;Temp;Humidity;BMP_temperature;BMP_pressure;BME280_temperature;BME280_humidity;BME280_pressure;Samples;Min_cycle;Max_cycle;Signal;HPM_P1;HPM_P2
2023/02/06 00:00:56;;;;;;;45.45;19.10;;;;;;;-1.52;100.00;103662.63;7389766;19;20193;-48
2023/02/06 00:03:25;;;;;;;37.25;17.27;;;;;;;-1.54;100.00;103662.41;7393423;19;20135;-48
2023/02/06 00:05:58;;;;;;;33.90;16.60;;;;;;;-1.57;100.00;103656.94;7389413;19;20214;-48
2023/02/06 00:08:28;;;;;;;38.72;17.13;;;;;;;-1.56;100.00;103663.81;7392306;19;20174;-49
2023/02/06 00:11:04;;;;;;;46.22;18.10;;;;;;;-1.60;100.00;103661.56;7389913;19;20194;-48
2023/02/06 00:13:33;;;;;;;40.17;15.95;;;;;;;-1.58;100.00;103660.16;7392648;19;20130;-48
2023/02/06 00:16:03;;;;;;;39.50;16.10;;;;;;;-1.61;100.00;103664.78;7388744;19;20194;-48
2023/02/06 00:18:32;;;;;;;38.65;16.70;;;;;;;-1.64;100.00;103669.44;7391725;19;20650;-48
2023/02/06 00:21:02;;;;;;;37.95;16.90;;;;;;;-1.67;100.00;103669.00;7388337;19;20198;-50
2023/02/06 00:23:31;;;;;;;40.42;17.65;;;;;;;-1.65;100.00;103670.13;7393282;19;20139;-49
2023/02/06 00:26:03;;;;;;;34.58;15.38;;;;;;;-1.69;100.00;103666.25;7388179;19;20674;-50
2023/02/06 00:28:33;;;;;;;43.83;17.90;;;;;;;-1.70;100.00;103672.03;7390421;19;20174;-48
2023/02/06 00:31:02;;;;;;;44.05;16.50;;;;;;;-1.70;100.00;103674.56;7388603;19;20214;-52
2023/02/06 00:33:32;;;;;;;40.88;15.10;;;;;;;-1.70;100.00;103676.19;7391888;19;20138;-48
2023/02/06 00:36:01;;;;;;;36.50;15.57;;;;;;;-1.69;100.00;103680.56;7387408;19;20199;-49
2023/02/06 00:38:31;;;;;;;32.00;14.70;;;;;;;-1.71;100.00;103679.41;7390099;19;20174;-49
2023/02/06 00:41:00;;;;;;;29.73;14.32;;;;;;;-1.71;100.00;103680.34;7388361;19;20198;-48
2023/02/06 00:43:32;;;;;;;40.08;13.43;;;;;;;-1.66;100.00;103683.50;7389142;19;20131;-48
2023/02/06 00:46:02;;;;;;;34.63;15.07;;;;;;;-1.70;100.00;103678.75;7388340;19;20559;-48
2023/02/06 00:48:31;;;;;;;40.03;14.43;;;;;;;-1.74;100.00;103686.59;7392438;19;20170;-48
2023/02/06 00:51:01;;;;;;;33.17;13.07;;;;;;;-1.75;100.00;103680.59;7395871;19;20198;-50
2023/02/06 00:53:30;;;;;;;39.35;14.68;;;;;;;-1.77;100.00;103677.88;7399509;19;20607;-49
2023/02/06 00:56:00;;;;;;;41.17;14.27;;;;;;;-1.78;100.00;103672.59;7394860;19;20198;-50
2023/02/06 00:58:29;;;;;;;31.30;13.05;;;;;;;-1.79;100.00;103675.84;7396139;19;20293;-49
2023/02/06 01:01:01;;;;;;;36.75;14.82;;;;;;;-1.81;100.00;103675.63;7394760;19;20194;-49
2023/02/06 01:03:30;;;;;;;34.78;14.15;;;;;;;-1.82;100.00;103663.66;7398412;19;20135;-48
2023/02/06 01:06:00;;;;;;;35.15;13.82;;;;;;;-1.81;100.00;103667.09;7394277;19;20198;-49
2023/02/06 01:08:29;;;;;;;38.17;15.57;;;;;;;-1.79;100.00;103675.84;7396784;19;20171;-51
2023/02/06 01:10:59;;;;;;;30.55;13.20;;;;;;;-1.81;100.00;103673.09;7395137;19;20202;-51
2023/02/06 01:13:28;;;;;;;29.00;11.23;;;;;;;-1.79;100.00;103679.28;7398260;19;20508;-49
2023/02/06 01:16:00;;;;;;;29.90;11.10;;;;;;;-1.79;100.00;103674.19;7394076;19;20958;-49
2023/02/06 01:18:30;;;;;;;25.02;11.63;;;;;;;-1.79;100.00;103674.19;7396410;19;20195;-48
2023/02/06 01:20:59;;;;;;;26.55;11.52;;;;;;;-1.75;100.00;103670.47;7394576;19;20828;-51
2023/02/06 01:23:29;;;;;;;26.92;11.75;;;;;;;-1.68;100.00;103667.19;7397870;19;20134;-50
2023/02/06 01:25:58;;;;;;;26.23;10.18;;;;;;;-1.75;100.00;103672.13;7394246;19;20190;-50
2023/02/06 01:28:27;;;;;;;28.23;12.63;;;;;;;-1.76;100.00;103671.19;7394751;19;20178;-49
2023/02/06 01:30:57;;;;;;;39.70;15.02;;;;;;;-0.99;100.00;103667.19;7395401;19;20190;-48
2023/02/06 01:33:29;;;;;;;24.38;11.55;;;;;;;-0.63;100.00;103669.38;7398304;19;20134;-50
2023/02/06 01:35:58;;;;;;;31.77;12.20;;;;;;;-0.77;100.00;103681.13;7392934;19;20720;-49
2023/02/06 01:38:28;;;;;;;31.45;13.23;;;;;;;-0.60;100.00;103685.03;7396361;19;20170;-51
2023/02/06 01:40:58;;;;;;;35.85;10.98;;;;;;;-0.85;100.00;103686.81;7394053;19;20191;-48
2023/02/06 01:43:37;;;;;;;28.95;12.20;;;;;;;-0.73;100.00;103682.47;7397589;19;20150;-51
2023/02/06 01:46:07;;;;;;;27.23;11.20;;;;;;;-0.73;100.00;103678.31;7394300;19;20214;-48
2023/02/06 01:48:43;;;;;;;27.52;10.65;;;;;;;-0.57;100.00;103686.34;7396574;19;20198;-50
2023/02/06 01:51:15;;;;;;;26.42;9.68;;;;;;;-0.34;100.00;103692.66;7394637;19;20190;-49
2023/02/06 01:53:46;;;;;;;23.27;10.05;;;;;;;-0.77;100.00;103701.41;7397908;19;20482;-48
2023/02/06 01:56:18;;;;;;;23.92;9.05;;;;;;;-0.74;100.00;103706.91;7393421;19;20194;-48
2023/02/06 01:58:50;;;;;;;19.00;8.98;;;;;;;-0.57;100.00;103710.78;7394758;19;20243;-48
2023/02/06 02:01:20;;;;;;;28.13;9.23;;;;;;;-0.39;100.00;103721.59;7390693;19;20554;-48
2023/02/06 02:03:55;;;;;;;28.92;8.05;;;;;;;-0.31;100.00;103721.00;7396358;19;20138;-50
2023/02/06 02:06:26;;;;;;;23.98;7.78;;;;;;;-0.29;100.00;103724.66;7393399;19;20190;-50
2023/02/06 02:08:57;;;;;;;17.70;7.22;;;;;;;-0.32;100.00;103729.31;7395322;19;20194;-51
2023/02/06 02:11:30;;;;;;;34.03;8.10;;;;;;;-0.20;100.00;103733.47;7391918;19;20182;-49
2023/02/06 02:14:00;;;;;;;20.40;7.70;;;;;;;-0.18;100.00;103732.09;7395120;19;20134;-50
2023/02/06 02:16:40;;;;;;;17.80;6.80;;;;;;;-0.27;100.00;103738.47;7391349;19;20322;-52
2023/02/06 02:19:37;;;;;;;21.25;7.05;;;;;;;-0.17;100.00;103746.59;7394959;19;20182;-49
2023/02/06 02:22:34;;;;;;;21.75;6.70;;;;;;;0.18;100.00;103752.00;7390182;19;20203;-49
2023/02/06 02:25:39;;;;;;;18.70;6.85;;;;;;;0.03;100.00;103765.19;7388127;19;20161;-48
2023/02/06 02:28:32;;;;;;;23.80;7.20;;;;;;;0.38;100.00;103767.31;7392964;19;20198;-47
2023/02/06 02:31:21;;;;;;;25.08;6.88;;;;;;;-0.15;100.00;103785.78;7392338;19;20675;-48
2023/02/06 02:34:23;;;;;;;24.75;6.45;;;;;;;-0.64;100.00;103808.00;7394201;19;20150;-48
2023/02/06 02:36:59;;;;;;;18.02;6.25;;;;;;;-0.65;100.00;103817.91;7387325;19;20206;-49
2023/02/06 02:39:39;;;;;;;21.25;6.20;;;;;;;-0.57;100.00;103812.25;7394008;19;20648;-49
2023/02/06 02:42:13;;;;;;;26.52;5.80;;;;;;;-0.41;100.00;103817.81;7392299;19;20183;-49
2023/02/06 02:44:49;;;;;;;20.35;4.78;;;;;;;-0.56;100.00;103821.72;7395049;19;20153;-50
2023/02/06 02:47:21;;;;;;;17.35;5.97;;;;;;;-0.06;100.00;103816.56;7391685;19;20563;-50
2023/02/06 02:49:51;;;;;;;14.23;5.97;;;;;;;-0.37;100.00;103834.38;7395741;19;20143;-51
2023/02/06 02:52:23;;;;;;;18.95;5.25;;;;;;;-0.56;100.00;103824.25;7392480;19;20214;-50
2023/02/06 02:54:52;;;;;;;9.95;4.32;;;;;;;-0.52;100.00;103815.44;7395465;19;20147;-50
2023/02/06 02:57:26;;;;;;;23.35;5.03;;;;;;;-0.09;100.00;103813.63;7391245;19;20194;-48
2023/02/06 02:59:57;;;;;;;12.73;4.90;;;;;;;-0.18;100.00;103803.16;7394075;19;20143;-49
2023/02/06 03:02:27;;;;;;;14.95;5.32;;;;;;;-0.37;100.00;103802.28;7392052;19;20190;-48
2023/02/06 03:04:59;;;;;;;15.45;4.10;;;;;;;-0.68;100.00;103806.66;7395416;19;20135;-50
2023/02/06 03:07:35;;;;;;;12.18;4.88;;;;;;;-0.71;100.00;103801.16;7390654;19;20186;-49
2023/02/06 03:10:11;;;;;;;20.35;5.25;;;;;;;-0.61;100.00;103797.34;7394707;19;20154;-50
2023/02/06 03:12:47;;;;;;;12.30;4.53;;;;;;;-0.27;100.00;103781.59;7389356;19;20197;-48
2023/02/06 03:15:24;;;;;;;16.45;5.47;;;;;;;0.10;100.00;103768.75;7395088;19;20495;-49
2023/02/06 03:17:57;;;;;;;20.20;4.93;;;;;;;0.06;100.00;103766.50;7393653;19;20234;-49
2023/02/06 03:20:27;;;;;;;19.95;4.93;;;;;;;-0.36;100.00;103776.19;7390976;19;20131;-50
2023/02/06 03:23:00;;;;;;;12.77;5.00;;;;;;;-0.53;100.00;103779.00;7394205;19;20139;-48
2023/02/06 03:25:34;;;;;;;17.13;4.70;;;;;;;-0.45;100.00;103787.66;7390767;19;20135;-48
2023/02/06 03:28:05;;;;;;;18.13;5.50;;;;;;;0.09;100.00;103787.22;7392285;19;20253;-48
2023/02/06 03:30:36;;;;;;;36.75;10.27;;;;;;;1.08;100.00;103783.03;7391937;19;20141;-49
2023/02/06 03:33:07;;;;;;;55.47;19.63;;;;;;;1.41;100.00;103766.78;7394008;19;20145;-50
2023/02/06 03:35:38;;;;;;;39.80;13.57;;;;;;;0.73;100.00;103774.25;7391151;19;20403;-48
2023/02/06 03:38:10;;;;;;;15.10;4.47;;;;;;;0.01;100.00;103779.31;7392862;19;20438;-50
2023/02/06 03:40:41;;;;;;;23.90;7.53;;;;;;;-0.34;100.00;103781.50;7390061;19;20427;-49
2023/02/06 03:43:17;;;;;;;16.50;3.47;;;;;;;-0.68;100.00;103783.84;7393519;19;20139;-49
2023/02/06 03:45:49;;;;;;;17.48;5.55;;;;;;;-0.62;100.00;103780.31;7390062;19;20958;-50
2023/02/06 03:48:21;;;;;;;11.88;4.40;;;;;;;-0.70;100.00;103775.13;7393357;19;20174;-49
2023/02/06 03:50:53;;;;;;;22.02;5.45;;;;;;;-0.78;100.00;103768.06;7390543;19;20193;-49
2023/02/06 03:53:25;;;;;;;19.55;6.18;;;;;;;-0.47;100.00;103763.72;7394033;19;20159;-48
2023/02/06 03:55:58;;;;;;;14.10;3.83;;;;;;;-0.41;100.00;103762.00;7389469;19;20190;-48
2023/02/06 03:58:27;;;;;;;17.73;4.95;;;;;;;-0.55;100.00;103755.06;7391850;19;20167;-54
2023/02/06 04:00:57;;;;;;;16.48;4.50;;;;;;;-0.61;100.00;103754.22;7388472;19;20214;-49
2023/02/06 04:03:27;;;;;;;22.95;4.80;;;;;;;-0.71;100.00;103754.59;7394295;19;20213;-49
2023/02/06 04:05:56;;;;;;;17.75;6.45;;;;;;;-0.50;100.00;103750.59;7387253;19;20221;-52
2023/02/06 04:08:28;;;;;;;35.55;7.35;;;;;;;-0.45;100.00;103742.88;7390211;19;20518;-51
2023/02/06 04:10:58;;;;;;;17.08;4.75;;;;;;;-0.50;100.00;103741.38;7387360;19;20201;-50
2023/02/06 04:13:27;;;;;;;21.33;6.10;;;;;;;-0.59;100.00;103747.72;7389434;19;20139;-51
2023/02/06 04:15:57;;;;;;;23.45;4.63;;;;;;;-0.66;100.00;103745.06;7384919;19;20201;-50
2023/02/06 04:18:27;;;;;;;16.70;4.80;;;;;;;-0.63;100.00;103737.88;7391108;19;20672;-50
2023/02/06 04:20:56;;;;;;;16.25;6.22;;;;;;;-0.45;100.00;103725.13;7385189;19;20218;-53
2023/02/06 04:23:28;;;;;;;26.15;7.15;;;;;;;-0.65;100.00;103730.06;7393887;19;20662;-50
2023/02/06 04:25:58;;;;;;;14.80;5.78;;;;;;;-0.15;100.00;103719.78;7393404;19;20714;-51
2023/02/06 04:28:27;;;;;;;23.27;7.80;;;;;;;-0.17;100.00;103720.28;7396207;19;20170;-49
2023/02/06 04:30:57;;;;;;;12.80;3.92;;;;;;;-0.33;100.00;103728.41;7394003;19;20222;-49
2023/02/06 04:33:26;;;;;;;23.58;4.70;;;;;;;-0.42;100.00;103728.09;7399540;19;20150;-49
2023/02/06 04:35:56;;;;;;;24.88;5.28;;;;;;;-0.37;100.00;103732.88;7392905;19;20879;-52
2023/02/06 04:38:25;;;;;;;23.50;5.10;;;;;;;-0.86;100.00;103735.69;7397795;19;20632;-49
2023/02/06 04:40:57;;;;;;;24.52;5.60;;;;;;;-0.37;100.00;103715.13;7393838;19;20218;-52
2023/02/06 04:43:27;;;;;;;16.92;5.20;;;;;;;-0.02;100.00;103721.41;7397864;19;20518;-49
2023/02/06 04:45:57;;;;;;;23.25;6.45;;;;;;;0.08;100.00;103716.84;7394250;19;20198;-48
2023/02/06 04:48:27;;;;;;;16.45;4.97;;;;;;;-0.38;100.00;103703.13;7397933;19;20181;-52
2023/02/06 04:50:56;;;;;;;27.33;4.95;;;;;;;-0.38;100.00;103704.03;7393298;19;20190;-48
2023/02/06 04:53:26;;;;;;;18.02;6.63;;;;;;;-0.29;100.00;103714.50;7398892;19;20135;-49
2023/02/06 04:56:03;;;;;;;23.17;6.97;;;;;;;-0.13;100.00;103712.38;7393773;19;20190;-53
2023/02/06 04:58:32;;;;;;;16.80;5.72;;;;;;;-0.33;100.00;103722.41;7395335;19;20174;-48
2023/02/06 05:01:02;;;;;;;32.90;6.45;;;;;;;-0.35;100.00;103726.38;7394086;19;20197;-52
2023/02/06 05:03:32;;;;;;;17.60;5.40;;;;;;;-0.58;100.00;103734.34;7397942;19;20137;-50
2023/02/06 05:06:02;;;;;;;18.90;4.88;;;;;;;-0.90;100.00;103734.34;7393493;19;20194;-50
2023/02/06 05:08:32;;;;;;;19.30;6.30;;;;;;;-1.11;100.00;103725.66;7396074;19;20642;-49
2023/02/06 05:11:04;;;;;;;18.05;4.78;;;;;;;-0.84;100.00;103713.97;7394088;19;20222;-49
2023/02/06 05:13:34;;;;;;;24.75;6.15;;;;;;;-0.08;100.00;103706.28;7396530;19;20131;-48
2023/02/06 05:16:06;;;;;;;23.10;6.03;;;;;;;-0.21;100.00;103716.44;7393167;19;20194;-51
2023/02/06 05:18:36;;;;;;;24.75;5.05;;;;;;;-0.37;100.00;103716.00;7396100;19;20529;-52
2023/02/06 05:21:06;;;;;;;20.75;4.85;;;;;;;-0.77;100.00;103713.19;7393472;19;20198;-48
2023/02/06 05:23:36;;;;;;;19.40;5.70;;;;;;;-0.99;100.00;103707.75;7397107;19;20135;-49
2023/02/06 05:26:08;;;;;;;24.70;5.10;;;;;;;-1.09;100.00;103703.97;7393375;19;20189;-48
2023/02/06 05:28:37;;;;;;;18.10;5.13;;;;;;;-1.36;100.00;103706.16;7396405;19;20202;-49
2023/02/06 05:31:07;;;;;;;17.88;4.75;;;;;;;-1.37;100.00;103717.00;7392817;19;20575;-53
2023/02/06 05:33:37;;;;;;;25.15;5.43;;;;;;;-1.28;100.00;103713.19;7397305;19;20152;-50
2023/02/06 05:36:08;;;;;;;22.85;6.15;;;;;;;-1.15;100.00;103709.81;7390039;19;20874;-51
2023/02/06 05:38:38;;;;;;;20.10;6.28;;;;;;;-1.10;100.00;103706.28;7395562;19;20170;-49
2023/02/06 05:41:10;;;;;;;27.05;7.20;;;;;;;-1.10;100.00;103713.88;7393704;19;20738;-49
2023/02/06 05:43:39;;;;;;;17.75;5.60;;;;;;;-0.81;100.00;103709.34;7397689;19;20686;-49
2023/02/06 05:46:10;;;;;;;13.13;5.18;;;;;;;-0.78;100.00;103704.66;7393119;19;20198;-49
2023/02/06 05:48:39;;;;;;;20.27;5.68;;;;;;;-0.51;100.00;103701.47;7395671;19;20178;-50
2023/02/06 05:51:09;;;;;;;17.33;4.68;;;;;;;-0.70;100.00;103703.19;7393676;19;20537;-48
2023/02/06 05:53:38;;;;;;;25.23;5.22;;;;;;;-0.71;100.00;103698.81;7397234;19;20598;-49
2023/02/06 05:56:10;;;;;;;19.02;6.00;;;;;;;-0.79;100.00;103692.69;7392943;19;20191;-51
2023/02/06 05:58:40;;;;;;;16.95;5.53;;;;;;;-1.36;100.00;103698.56;7395494;19;20170;-52
2023/02/06 06:01:09;;;;;;;22.88;5.55;;;;;;;-1.67;100.00;103701.94;7392930;19;20194;-49
2023/02/06 06:03:39;;;;;;;14.65;5.28;;;;;;;-1.82;100.00;103701.66;7397039;19;20135;-51
2023/02/06 06:06:09;;;;;;;17.73;4.25;;;;;;;-1.75;100.00;103707.56;7392453;19;20194;-48
2023/02/06 06:08:38;;;;;;;21.20;5.05;;;;;;;-1.76;100.00;103701.56;7395405;19;20523;-48
2023/02/06 06:11:11;;;;;;;15.05;4.18;;;;;;;-1.79;100.00;103697.00;7393259;19;20198;-49
2023/02/06 06:13:40;;;;;;;16.65;4.68;;;;;;;-1.82;100.00;103688.97;7396726;19;20149;-49
2023/02/06 06:16:09;;;;;;;14.88;4.60;;;;;;;-1.87;100.00;103687.44;7392309;19;20201;-49
2023/02/06 06:18:39;;;;;;;16.92;6.03;;;;;;;-1.98;100.00;103692.59;7395054;19;20233;-48
2023/02/06 06:21:09;;;;;;;18.98;3.83;;;;;;;-2.18;100.00;103695.78;7392330;19;20205;-49
2023/02/06 06:23:38;;;;;;;16.90;5.00;;;;;;;-2.28;100.00;103692.66;7396049;19;20135;-48
2023/02/06 06:26:07;;;;;;;20.23;4.90;;;;;;;-2.32;100.00;103697.28;7392245;19;20194;-49
2023/02/06 06:28:41;;;;;;;28.88;5.10;;;;;;;-2.37;100.00;103678.03;7394742;19;20178;-49
2023/02/06 06:31:13;;;;;;;22.08;5.05;;;;;;;-2.32;100.00;103672.00;7392679;19;20190;-50
2023/02/06 06:33:43;;;;;;;29.85;5.93;;;;;;;-2.27;100.00;103664.16;7396171;19;20141;-49
2023/02/06 06:36:14;;;;;;;28.55;6.30;;;;;;;-2.28;100.00;103652.19;7391131;19;20194;-51
2023/02/06 06:38:43;;;;;;;25.92;5.47;;;;;;;-2.19;100.00;103650.94;7394412;19;20643;-49
2023/02/06 06:41:13;;;;;;;21.17;5.70;;;;;;;-2.14;100.00;103649.06;7391959;19;20186;-49
2023/02/06 06:43:45;;;;;;;21.63;5.72;;;;;;;-2.12;100.00;103633.38;7395712;19;20139;-48
2023/02/06 06:46:14;;;;;;;16.20;4.68;;;;;;;-2.12;100.00;103635.00;7390980;19;20199;-48
2023/02/06 06:48:43;;;;;;;17.38;5.50;;;;;;;-2.12;100.00;103633.38;7393958;19;20194;-48
2023/02/06 06:51:13;;;;;;;27.80;5.35;;;;;;;-2.08;100.00;103637.25;7391550;19;20235;-51
2023/02/06 06:53:42;;;;;;;27.48;6.47;;;;;;;-2.05;100.00;103632.66;7395262;19;20131;-50
2023/02/06 06:56:14;;;;;;;23.13;5.85;;;;;;;-2.09;100.00;103637.97;7389873;19;20218;-48
2023/02/06 06:58:46;;;;;;;28.90;6.05;;;;;;;-2.12;100.00;103640.97;7393775;19;20174;-48
2023/02/06 07:01:15;;;;;;;23.42;5.90;;;;;;;-2.07;100.00;103642.53;7391684;19;20265;-49
2023/02/06 07:03:47;;;;;;;20.70;5.45;;;;;;;-2.13;100.00;103638.22;7394900;19;20478;-48
2023/02/06 07:06:17;;;;;;;30.05;5.88;;;;;;;-2.16;100.00;103641.25;7390973;19;20182;-49
2023/02/06 07:08:47;;;;;;;16.88;4.13;;;;;;;-2.13;100.00;103641.69;7393666;19;20646;-50
2023/02/06 07:11:17;;;;;;;20.27;5.95;;;;;;;-2.12;100.00;103640.97;7391354;19;20190;-50
2023/02/06 07:13:49;;;;;;;21.58;7.53;;;;;;;-2.14;100.00;103652.53;7394486;19;20956;-52
2023/02/06 07:16:18;;;;;;;18.40;5.65;;;;;;;-2.15;100.00;103654.81;7390976;19;20194;-48
2023/02/06 07:18:48;;;;;;;30.63;6.80;;;;;;;-2.19;100.00;103653.47;7393517;19;20638;-51
2023/02/06 07:21:18;;;;;;;26.98;6.28;;;;;;;-2.16;100.00;103661.47;7390977;19;20198;-49
2023/02/06 07:23:48;;;;;;;17.08;5.43;;;;;;;-2.10;100.00;103669.03;7392993;19;20160;-50
2023/02/06 07:26:17;;;;;;;19.20;5.75;;;;;;;-2.08;100.00;103660.97;7389982;19;20667;-54
2023/02/06 07:28:51;;;;;;;24.13;5.47;;;;;;;-2.06;100.00;103664.63;7393762;19;20178;-49
2023/02/06 07:31:21;;;;;;;23.75;7.75;;;;;;;-2.01;100.00;103674.47;7387368;19;20196;-50
2023/02/06 07:33:50;;;;;;;23.05;7.00;;;;;;;-1.95;100.00;103670.28;7393989;19;20660;-49
2023/02/06 07:36:19;;;;;;;18.25;6.35;;;;;;;-1.98;100.00;103679.94;7389450;19;20193;-47
2023/02/06 07:38:49;;;;;;;69.72;25.48;;;;;;;-1.27;100.00;103663.44;7392559;19;20175;-50
2023/02/06 07:41:18;;;;;;;41.95;13.35;;;;;;;-0.84;100.00;103665.81;7390766;19;20194;-48
2023/02/06 07:43:52;;;;;;;38.35;12.73;;;;;;;-0.44;100.00;103658.47;7393712;19;20159;-49
2023/02/06 07:46:22;;;;;;;39.80;13.05;;;;;;;-0.43;100.00;103665.38;7390153;19;20193;-49
2023/02/06 07:48:52;;;;;;;44.20;16.20;;;;;;;-0.30;100.00;103682.22;7392574;19;20170;-50
2023/02/06 07:51:21;;;;;;;35.47;13.02;;;;;;;-0.53;100.00;103691.84;7390354;19;20214;-49
2023/02/06 07:53:51;;;;;;;40.97;10.18;;;;;;;-0.68;100.00;103702.69;7393492;19;20138;-49
2023/02/06 07:56:22;;;;;;;26.45;7.38;;;;;;;-0.51;100.00;103708.19;7389372;19;20210;-48
2023/02/06 07:58:55;;;;;;;30.05;7.22;;;;;;;-0.28;100.00;103696.03;7394596;19;20174;-48
2023/02/06 08:01:25;;;;;;;23.08;7.10;;;;;;;-0.32;100.00;103688.69;7397585;19;20197;-49
2023/02/06 08:03:55;;;;;;;27.92;7.78;;;;;;;-0.84;100.00;103708.91;7398507;19;20155;-50
2023/02/06 08:06:25;;;;;;;20.35;7.13;;;;;;;-0.79;100.00;103713.00;7397065;19;20193;-48
2023/02/06 08:08:57;;;;;;;22.05;8.07;;;;;;;-0.34;100.00;103718.03;7399050;19;20187;-49
2023/02/06 08:11:29;;;;;;;22.15;7.97;;;;;;;-0.52;100.00;103714.88;7398365;19;20186;-50
2023/02/06 08:14:01;;;;;;;27.13;7.50;;;;;;;-0.57;100.00;103729.47;7400992;19;20202;-48
2023/02/06 08:16:31;;;;;;;40.45;6.72;;;;;;;-0.62;100.00;103737.19;7395355;19;20190;-48
2023/02/06 08:19:00;;;;;;;23.95;7.60;;;;;;;-0.80;100.00;103736.53;7398651;19;20174;-51
2023/02/06 08:21:30;;;;;;;27.50;8.57;;;;;;;-0.64;100.00;103739.50;7395366;19;20721;-47
2023/02/06 08:24:01;;;;;;;28.73;8.40;;;;;;;-0.54;100.00;103749.28;7398517;19;20142;-49
2023/02/06 08:26:31;;;;;;;27.95;9.60;;;;;;;-0.43;100.00;103751.63;7394903;19;20193;-51
2023/02/06 08:29:05;;;;;;;34.10;9.30;;;;;;;-0.50;100.00;103763.28;7398365;19;20175;-48
2023/02/06 08:31:36;;;;;;;31.77;8.00;;;;;;;-0.37;100.00;103760.78;7395531;19;20197;-50
2023/02/06 08:34:07;;;;;;;21.25;8.07;;;;;;;-0.21;100.00;103762.13;7399958;19;20507;-48
2023/02/06 08:36:36;;;;;;;26.88;9.30;;;;;;;-0.29;100.00;103760.19;7393947;19;20190;-48
2023/02/06 08:39:06;;;;;;;24.13;8.43;;;;;;;-0.03;100.00;103750.06;7398447;19;20820;-50
2023/02/06 08:41:38;;;;;;;29.13;7.63;;;;;;;-0.31;100.00;103762.50;7395206;19;20221;-48
2023/02/06 08:44:13;;;;;;;24.65;7.53;;;;;;;-0.44;100.00;103764.13;7398184;19;20139;-48
2023/02/06 08:46:43;;;;;;;52.92;16.50;;;;;;;0.42;100.00;103757.53;7394818;19;20186;-49
2023/02/06 08:49:14;;;;;;;42.27;15.27;;;;;;;0.85;100.00;103747.91;7397624;19;20175;-52
2023/02/06 08:51:44;;;;;;;121.87;46.53;;;;;;;0.85;100.00;103747.91;7394792;19;20435;-48
2023/02/06 08:54:15;;;;;;;73.57;26.93;;;;;;;0.56;100.00;103747.56;7400411;19;20409;-48
2023/02/06 08:56:45;;;;;;;37.80;9.77;;;;;;;0.35;100.00;103744.03;7394231;19;20443;-49
2023/02/06 08:59:19;;;;;;;50.43;17.30;;;;;;;0.19;100.00;103742.72;7397961;19;20483;-53
2023/02/06 09:01:48;;;;;;;21.17;7.63;;;;;;;0.12;100.00;103749.53;7395200;19;21077;-51
2023/02/06 09:04:18;;;;;;;42.77;14.93;;;;;;;0.15;100.00;103749.03;7397862;19;20424;-48
2023/02/06 09:06:48;;;;;;;33.23;12.53;;;;;;;0.44;100.00;103736.72;7394058;19;20431;-48
2023/02/06 09:09:18;;;;;;;33.13;8.90;;;;;;;0.41;100.00;103743.91;7397645;19;20437;-50
2023/02/06 09:11:47;;;;;;;19.63;8.20;;;;;;;0.06;100.00;103747.81;7390124;19;20442;-53
2023/02/06 09:14:19;;;;;;;32.27;7.70;;;;;;;-0.22;100.00;103752.69;7394457;19;20408;-49
2023/02/06 09:16:49;;;;;;;21.52;7.47;;;;;;;-0.34;100.00;103745.97;7390233;19;20431;-48
2023/02/06 09:19:18;;;;;;;27.15;6.93;;;;;;;-0.36;100.00;103732.16;7391890;19;20181;-51
2023/02/06 09:21:48;;;;;;;18.53;6.87;;;;;;;-0.39;100.00;103732.66;7390711;19;20194;-53
2023/02/06 09:24:17;;;;;;;24.90;7.47;;;;;;;-0.39;100.00;103716.50;7392583;19;20399;-53
2023/02/06 09:26:47;;;;;;;22.60;6.72;;;;;;;-0.48;100.00;103706.97;7393524;19;20446;-51
2023/02/06 09:29:31;;;;;;;19.08;7.13;;;;;;;-0.49;100.00;103707.69;7394603;19;20163;-51
2023/02/06 09:32:01;;;;;;;16.13;7.25;;;;;;;-0.49;100.00;103720.38;7392739;19;20544;-49
2023/02/06 09:34:30;;;;;;;20.03;7.87;;;;;;;-0.35;100.00;103718.75;7394805;19;20143;-49
2023/02/06 09:37:02;;;;;;;21.05;7.10;;;;;;;-0.31;100.00;103721.91;7393049;19;20431;-49
2023/02/06 09:39:32;;;;;;;17.73;7.40;;;;;;;-0.24;100.00;103721.13;7394837;19;20194;-49
2023/02/06 09:42:06;;;;;;;31.10;10.38;;;;;;;-0.11;100.00;103725.28;7393490;19;20446;-49
2023/02/06 09:44:40;;;;;;;13.77;6.37;;;;;;;-0.04;100.00;103721.19;7397257;19;20135;-49
2023/02/06 09:47:16;;;;;;;23.75;7.97;;;;;;;-0.03;100.00;103724.66;7393192;19;20435;-48
2023/02/06 09:49:48;;;;;;;17.97;6.40;;;;;;;0.11;100.00;103724.84;7397363;19;20162;-49
2023/02/06 09:52:25;;;;;;;15.87;7.17;;;;;;;0.09;100.00;103721.22;7394285;19;21026;-50
2023/02/06 09:55:00;;;;;;;15.73;5.47;;;;;;;0.16;100.00;103712.78;7397485;19;20412;-49
2023/02/06 09:57:36;;;;;;;14.70;6.90;;;;;;;0.15;100.00;103715.13;7392635;19;20471;-48
2023/02/06 10:00:15;;;;;;;14.10;6.70;;;;;;;0.22;100.00;103721.22;7397265;19;20395;-50
2023/02/06 10:03:13;;;;;;;20.50;7.90;;;;;;;0.37;100.00;103736.63;7393530;19;20468;-50
2023/02/06 10:05:49;;;;;;;20.80;7.80;;;;;;;0.45;100.00;103741.06;7390030;19;20447;-51
2023/02/06 10:08:23;;;;;;;19.37;8.30;;;;;;;0.53;100.00;103734.47;7396699;19;20793;-48
2023/02/06 10:10:56;;;;;;;18.33;8.60;;;;;;;0.56;100.00;103739.03;7392382;19;20432;-48
2023/02/06 10:13:28;;;;;;;21.23;8.20;;;;;;;0.56;100.00;103741.56;7397896;19;20404;-50
2023/02/06 10:16:03;;;;;;;20.30;9.57;;;;;;;0.65;100.00;103743.69;7392019;19;20390;-49
2023/02/06 10:18:36;;;;;;;21.23;8.67;;;;;;;0.53;100.00;103748.06;7394696;19;20443;-49
2023/02/06 10:21:08;;;;;;;22.80;8.57;;;;;;;0.53;100.00;103752.25;7390948;19;20461;-47
2023/02/06 10:23:42;;;;;;;18.33;8.47;;;;;;;0.62;100.00;103748.34;7395036;19;20413;-50
2023/02/06 10:26:16;;;;;;;21.13;8.40;;;;;;;0.77;100.00;103743.44;7392366;19;20450;-51
2023/02/06 10:28:46;;;;;;;17.67;7.77;;;;;;;0.73;100.00;103741.22;7395034;19;20437;-50
2023/02/06 10:31:28;;;;;;;18.77;7.80;;;;;;;0.90;100.00;103730.69;7393199;19;20411;-48
2023/02/06 10:34:08;;;;;;;16.17;7.57;;;;;;;0.98;100.00;103735.16;7396414;19;20411;-49
2023/02/06 10:36:45;;;;;;;17.90;7.77;;;;;;;1.07;100.00;103736.31;7390134;19;20439;-48
2023/02/06 10:39:36;;;;;;;13.20;7.30;;;;;;;1.16;100.00;103741.66;7395179;19;20441;-50
2023/02/06 10:42:12;;;;;;;15.60;7.87;;;;;;;1.36;100.00;103740.75;7392443;19;20772;-48
2023/02/06 10:44:46;;;;;;;18.33;8.90;;;;;;;1.46;100.00;103741.22;7394379;19;20411;-48
2023/02/06 10:47:32;;;;;;;15.70;8.03;;;;;;;1.63;100.00;103750.03;7392876;19;20997;-47
2023/02/06 10:50:05;;;;;;;18.30;8.07;;;;;;;1.71;100.00;103753.56;7396148;19;20388;-52
2023/02/06 10:52:38;;;;;;;16.63;7.43;;;;;;;1.63;100.00;103767.84;7392030;19;20441;-50
2023/02/06 10:55:18;;;;;;;18.57;8.57;;;;;;;1.64;100.00;103779.88;7393309;19;20403;-48
2023/02/06 10:57:49;;;;;;;30.67;15.23;;;;;;;2.15;100.00;103777.66;7391939;19;20458;-48
2023/02/06 11:00:24;;;;;;;22.90;10.67;;;;;;;2.61;100.00;103762.03;7396252;19;20404;-50
2023/02/06 11:02:58;;;;;;;115.20;57.23;;;;;;;3.15;100.00;103774.38;7393098;19;20438;-49
2023/02/06 11:05:36;;;;;;;30.37;15.20;;;;;;;3.45;100.00;103781.34;7389962;19;20399;-49
2023/02/06 11:08:12;;;;;;;28.50;14.70;;;;;;;3.34;100.00;103800.50;7394377;19;20851;-49
2023/02/06 11:10:41;;;;;;;39.33;19.10;;;;;;;2.74;100.00;103814.53;7391539;19;20410;-49
2023/02/06 11:13:18;;;;;;;20.50;8.03;;;;;;;2.52;100.00;103824.66;7395395;19;20403;-50
2023/02/06 11:15:54;;;;;;;16.63;6.77;;;;;;;2.38;100.00;103834.06;7390389;19;20772;-50
2023/02/06 11:18:29;;;;;;;14.77;7.10;;;;;;;2.09;100.00;103845.69;7392605;19;20431;-48
2023/02/06 11:20:59;;;;;;;15.07;7.73;;;;;;;1.95;100.00;103844.84;7390767;19;20425;-51
2023/02/06 11:23:30;;;;;;;24.47;8.30;;;;;;;1.83;100.00;103843.31;7393869;19;20818;-51
2023/02/06 11:26:12;;;;;;;16.10;8.50;;;;;;;1.89;100.00;103845.00;7389043;19;20419;-50
2023/02/06 11:28:51;;;;;;;18.33;8.50;;;;;;;1.85;100.00;103852.06;7389027;19;20446;-50
2023/02/06 11:31:22;;;;;;;15.33;7.47;;;;;;;1.74;100.00;103864.34;7390843;19;20426;-51